createdAt,value
2023-01-13T00:01:17.469Z,10.00
2023-01-13T00:03:43.816Z,6.67
2023-01-13T00:06:10.181Z,6.00
2023-01-13T00:08:36.566Z,6.00
2023-01-13T00:11:02.940Z,6.00
2023-01-13T00:16:23.027Z,6.33
2023-01-13T00:18:49.488Z,6.00
2023-01-13T00:21:15.850Z,6.33
2023-01-13T00:23:42.256Z,6.67
2023-01-13T00:26:09.501Z,4.50
2023-01-13T00:31:29.816Z,6.00
2023-01-13T00:33:56.299Z,5.00
2023-01-13T00:36:22.728Z,4.33
2023-01-13T00:38:49.105Z,5.67
2023-01-13T00:41:15.488Z,6.00
2023-01-13T00:46:25.990Z,5.00
2023-01-13T00:48:52.398Z,5.67
2023-01-13T00:51:18.995Z,5.67
2023-01-13T00:53:45.426Z,4.33
2023-01-13T00:56:12.667Z,4.00
2023-01-13T01:01:33.049Z,5.33
2023-01-13T01:03:59.571Z,5.33
2023-01-13T01:06:25.952Z,5.33
2023-01-13T01:08:52.343Z,5.00
2023-01-13T01:11:19.562Z,7.50
2023-01-13T01:16:29.742Z,4.33
2023-01-13T01:18:56.161Z,5.33
2023-01-13T01:21:22.561Z,6.00
2023-01-13T01:23:48.920Z,4.67
2023-01-13T01:26:15.323Z,6.00
2023-01-13T01:31:35.648Z,6.33
2023-01-13T01:34:02.099Z,4.00
2023-01-13T01:36:28.590Z,4.33
2023-01-13T01:38:54.984Z,4.00
2023-01-13T01:41:21.359Z,4.00
2023-01-13T01:46:42.284Z,4.00
2023-01-13T01:49:08.719Z,6.00
2023-01-13T01:51:35.074Z,6.00
2023-01-13T01:54:01.457Z,6.33
2023-01-13T01:56:27.830Z,5.33
2023-01-13T02:01:48.239Z,2.67
2023-01-13T02:04:15.591Z,6.00
2023-01-13T02:06:41.943Z,5.00
2023-01-13T02:09:08.269Z,4.00
2023-01-13T02:11:34.707Z,4.00
2023-01-13T02:16:45.001Z,5.00
2023-01-13T02:19:12.282Z,4.50
2023-01-13T02:21:38.659Z,4.33
2023-01-13T02:24:05.065Z,4.00
2023-01-13T02:26:31.441Z,4.67
2023-01-13T02:31:51.869Z,3.67
2023-01-13T02:34:18.275Z,6.33
2023-01-13T02:36:44.620Z,2.33
2023-01-13T02:39:11.060Z,4.00
2023-01-13T02:41:37.439Z,5.00
2023-01-13T02:46:47.769Z,5.00
2023-01-13T02:49:14.232Z,5.00
2023-01-13T02:51:40.582Z,3.00
2023-01-13T02:54:06.963Z,4.67
2023-01-13T02:56:33.335Z,3.00
2023-01-13T02:58:59.693Z,4.00
2023-01-13T03:01:26.139Z,5.00
2023-01-13T03:03:52.603Z,5.33
2023-01-13T03:06:18.977Z,4.67
2023-01-13T03:08:45.292Z,4.00
2023-01-13T03:11:11.722Z,3.67
2023-01-13T03:13:38.092Z,4.00
2023-01-13T03:16:04.469Z,4.00
2023-01-13T03:18:30.816Z,6.00
2023-01-13T03:20:57.160Z,4.67
2023-01-13T03:23:23.518Z,4.00
2023-01-13T03:25:49.867Z,3.00
2023-01-13T03:28:16.217Z,4.67
2023-01-13T03:30:42.600Z,4.00
2023-01-13T03:33:09.071Z,3.33
2023-01-13T03:35:35.407Z,4.67
2023-01-13T03:38:01.752Z,3.00
2023-01-13T03:40:28.066Z,2.00
2023-01-13T03:42:54.420Z,4.00
2023-01-13T03:45:20.750Z,3.00
2023-01-13T03:47:47.092Z,4.00
2023-01-13T03:50:13.425Z,3.00
2023-01-13T03:52:39.768Z,3.00
2023-01-13T03:55:06.142Z,4.00
2023-01-13T03:57:32.496Z,4.00
2023-01-13T03:59:58.884Z,3.00
2023-01-13T04:05:09.301Z,3.00
2023-01-13T04:07:35.652Z,3.00
2023-01-13T04:10:02.214Z,4.33
2023-01-13T04:12:28.642Z,3.00
2023-01-13T04:14:54.997Z,4.00
2023-01-13T04:20:15.408Z,3.67
2023-01-13T04:22:41.757Z,3.67
2023-01-13T04:25:08.077Z,3.00
2023-01-13T04:27:34.486Z,4.00
2023-01-13T04:30:00.829Z,2.67
2023-01-13T04:35:10.930Z,3.00
2023-01-13T04:37:37.284Z,3.00
2023-01-13T04:40:03.680Z,3.00
2023-01-13T04:42:30.007Z,4.00
2023-01-13T04:44:56.348Z,4.00
2023-01-13T04:50:16.410Z,3.67
2023-01-13T04:52:42.818Z,3.00
2023-01-13T04:55:09.178Z,4.00
2023-01-13T04:57:35.503Z,3.67
2023-01-13T05:00:01.839Z,3.67
2023-01-13T05:05:12.303Z,4.33
2023-01-13T05:07:38.646Z,5.00
2023-01-13T05:10:05.046Z,2.00
2023-01-13T05:12:31.389Z,3.33
2023-01-13T05:14:57.733Z,4.33
2023-01-13T05:20:17.909Z,3.67
2023-01-13T05:22:44.268Z,3.33
2023-01-13T05:25:10.616Z,3.67
2023-01-13T05:27:36.940Z,3.33
2023-01-13T05:30:03.301Z,5.00
2023-01-13T05:35:13.614Z,5.33
2023-01-13T05:37:40.000Z,5.33
2023-01-13T05:40:06.438Z,4.67
2023-01-13T05:42:32.775Z,4.00
2023-01-13T05:44:59.128Z,4.33
2023-01-13T05:50:21.577Z,38.67
2023-01-13T05:52:48.000Z,19.50
2023-01-13T05:55:15.317Z,16.00
2023-01-13T05:57:42.553Z,13.00
2023-01-13T06:00:09.919Z,10.50
2023-01-13T06:05:30.657Z,14.00
2023-01-13T06:07:57.217Z,14.00
2023-01-13T06:10:23.620Z,14.00
2023-01-13T06:12:50.889Z,17.00
2023-01-13T06:15:17.281Z,13.00
2023-01-13T06:20:28.908Z,13.33
2023-01-13T06:22:55.319Z,14.00
2023-01-13T06:25:22.559Z,14.00
2023-01-13T06:27:50.845Z,13.20
2023-01-13T06:30:17.518Z,13.50
2023-01-13T06:35:42.021Z,15.80
2023-01-13T06:38:09.350Z,17.00
2023-01-13T06:40:36.688Z,17.67
2023-01-13T06:43:03.946Z,15.33
2023-01-13T06:45:30.541Z,19.50
2023-01-13T06:50:43.334Z,22.00
2023-01-13T06:53:12.819Z,25.00
2023-01-13T06:55:40.552Z,21.67
2023-01-13T06:58:08.132Z,25.67
2023-01-13T07:00:34.620Z,25.00
2023-01-13T07:05:55.993Z,20.00
2023-01-13T07:08:22.454Z,21.00
2023-01-13T07:10:48.900Z,19.50
2023-01-13T07:13:16.385Z,20.00
2023-01-13T07:15:42.846Z,20.00
2023-01-13T07:20:53.162Z,19.50
2023-01-13T07:23:19.611Z,20.50
2023-01-13T07:25:46.079Z,16.00
2023-01-13T07:28:13.411Z,19.67
2023-01-13T07:30:39.827Z,16.50
2023-01-13T07:33:07.142Z,18.33
2023-01-13T07:35:34.379Z,17.00
2023-01-13T07:38:01.686Z,21.00
2023-01-13T07:40:29.043Z,19.00
2023-01-13T07:42:55.507Z,18.50
2023-01-13T07:45:21.934Z,18.00
2023-01-13T07:47:48.387Z,18.50
2023-01-13T07:50:15.750Z,15.00
2023-01-13T07:52:42.166Z,16.50
2023-01-13T07:55:09.663Z,15.67
2023-01-13T07:57:36.090Z,18.00
2023-01-13T08:00:03.951Z,18.00
2023-01-13T08:02:30.532Z,18.50
2023-01-13T08:04:57.940Z,19.00
2023-01-13T08:07:24.472Z,20.50
2023-01-13T08:09:50.898Z,17.00
2023-01-13T08:12:17.309Z,14.00
2023-01-13T08:14:43.815Z,14.00
2023-01-13T08:17:11.158Z,21.00
2023-01-13T08:19:37.622Z,14.00
2023-01-13T08:22:05.960Z,13.80
2023-01-13T08:24:33.220Z,13.67
2023-01-13T08:27:01.576Z,13.80
2023-01-13T08:29:30.765Z,13.50
2023-01-13T08:31:58.021Z,14.33
2023-01-13T08:34:26.314Z,11.60
2023-01-13T08:36:53.577Z,13.67
2023-01-13T08:39:20.058Z,11.00
2023-01-13T08:41:48.364Z,12.20
2023-01-13T08:44:14.846Z,12.00
2023-01-13T08:46:41.358Z,10.50
2023-01-13T08:49:07.790Z,12.00
2023-01-13T08:54:19.836Z,12.50
2023-01-13T08:56:46.342Z,15.00
2023-01-13T08:59:14.677Z,13.20
2023-01-13T09:01:41.219Z,14.00
2023-01-13T09:04:07.901Z,11.50
2023-01-13T09:09:21.020Z,13.83
2023-01-13T09:11:48.281Z,16.33
2023-01-13T09:14:14.661Z,15.00
2023-01-13T09:16:41.154Z,13.00
2023-01-13T09:19:08.413Z,13.00
2023-01-13T09:24:29.731Z,13.00
2023-01-13T09:26:56.163Z,17.00
2023-01-13T09:29:23.410Z,16.67
2023-01-13T09:31:49.961Z,14.50
2023-01-13T09:34:17.237Z,15.33
2023-01-13T09:39:28.301Z,13.00
2023-01-13T09:41:54.732Z,18.50
2023-01-13T09:44:21.176Z,19.00
2023-01-13T09:46:47.648Z,18.00
2023-01-13T09:49:14.338Z,18.50
2023-01-13T09:54:26.285Z,19.00
2023-01-13T09:56:53.530Z,15.67
2023-01-13T09:59:19.964Z,16.50
2023-01-13T10:01:46.403Z,13.50
2023-01-13T10:04:13.697Z,18.33
2023-01-13T10:09:34.905Z,15.50
2023-01-13T10:12:01.395Z,14.00
2023-01-13T10:14:28.667Z,15.00
2023-01-13T10:16:55.189Z,12.50
2023-01-13T10:19:22.454Z,16.33
2023-01-13T10:24:43.758Z,18.50
2023-01-13T10:27:10.401Z,15.00
2023-01-13T10:29:37.665Z,18.00
2023-01-13T10:32:04.967Z,18.33
2023-01-13T10:34:32.256Z,16.67
2023-01-13T10:39:43.373Z,15.00
2023-01-13T10:42:10.639Z,16.33
2023-01-13T10:44:37.094Z,17.00
2023-01-13T10:47:04.381Z,15.67
2023-01-13T10:49:30.851Z,19.00
2023-01-13T10:54:41.525Z,19.00
2023-01-13T10:57:08.834Z,20.00
2023-01-13T10:59:36.192Z,20.33
2023-01-13T11:02:10.199Z,22.00
2023-01-13T11:04:47.161Z,18.00
2023-01-13T11:09:58.551Z,18.33
2023-01-13T11:12:25.018Z,22.00
2023-01-13T11:14:52.361Z,21.67
2023-01-13T11:17:19.748Z,25.67
2023-01-13T11:19:47.177Z,21.00
2023-01-13T11:24:57.855Z,20.00
2023-01-13T11:27:25.231Z,19.67
2023-01-13T11:29:52.587Z,24.00
2023-01-13T11:32:20.025Z,23.00
2023-01-13T11:34:46.491Z,24.50
2023-01-13T11:39:56.809Z,23.00
2023-01-13T11:42:23.371Z,23.00
2023-01-13T11:44:49.854Z,24.00
2023-01-13T11:47:17.246Z,21.50
2023-01-13T11:49:43.729Z,24.00
2023-01-13T11:54:55.196Z,20.67
2023-01-13T11:57:22.615Z,19.33
2023-01-13T11:59:49.995Z,21.33
2023-01-13T12:02:17.483Z,21.33
2023-01-13T12:04:44.073Z,19.50
2023-01-13T12:07:11.499Z,17.33
2023-01-13T12:09:37.963Z,19.00
2023-01-13T12:12:05.353Z,19.67
2023-01-13T12:14:31.811Z,21.00
2023-01-13T12:17:01.122Z,20.67
2023-01-13T12:19:27.837Z,20.50
2023-01-13T12:21:54.320Z,18.00
2023-01-13T12:24:20.770Z,20.50
2023-01-13T12:26:47.270Z,21.50
2023-01-13T12:29:13.709Z,20.00
2023-01-13T12:31:40.197Z,26.50
2023-01-13T12:34:07.613Z,20.67
2023-01-13T12:36:36.105Z,258.00
2023-01-13T12:39:04.529Z,128.67
2023-01-13T12:41:32.862Z,107.67
2023-01-13T12:44:01.182Z,97.00
2023-01-13T12:46:29.427Z,90.33
2023-01-13T12:48:57.705Z,83.00
2023-01-13T12:51:24.208Z,78.50
2023-01-13T12:53:51.688Z,73.00
2023-01-13T12:56:19.167Z,70.00
2023-01-13T12:58:45.659Z,69.50
2023-01-13T13:01:13.189Z,60.00
2023-01-13T13:03:39.760Z,56.00
2023-01-13T13:06:07.209Z,48.00
2023-01-13T13:08:34.637Z,47.33
2023-01-13T13:11:02.088Z,48.67
2023-01-13T13:13:28.613Z,50.00
2023-01-13T13:15:55.089Z,36.50
2023-01-13T13:18:21.570Z,45.00
2023-01-13T13:20:48.151Z,39.00
2023-01-13T13:23:15.564Z,37.00
2023-01-13T13:28:26.040Z,32.00
2023-01-13T13:30:52.533Z,29.00
2023-01-13T13:33:20.020Z,33.50
2023-01-13T13:35:47.425Z,51.00
2023-01-13T13:38:15.728Z,85.33
2023-01-13T13:43:37.362Z,66.50
2023-01-13T13:46:03.890Z,66.50
2023-01-13T13:48:30.428Z,63.00
2023-01-13T13:50:57.208Z,60.50
2023-01-13T13:53:24.687Z,61.67
2023-01-13T13:58:45.398Z,56.50
2023-01-13T14:01:11.978Z,60.00
2023-01-13T14:03:40.309Z,48.67
2023-01-13T14:06:07.790Z,42.67
2023-01-13T14:08:34.287Z,43.50
2023-01-13T14:13:55.896Z,35.50
2023-01-13T14:16:22.376Z,30.00
2023-01-13T14:18:48.840Z,27.50
2023-01-13T14:21:16.534Z,28.00
2023-01-13T14:23:43.010Z,24.50
2023-01-13T14:28:54.462Z,20.67
2023-01-13T14:31:20.987Z,24.00
2023-01-13T14:33:47.493Z,20.50
2023-01-13T14:36:13.958Z,18.50
2023-01-13T14:38:41.371Z,20.00
2023-01-13T14:43:52.662Z,18.50
2023-01-13T14:46:20.013Z,19.67
2023-01-13T14:48:47.299Z,13.33
2023-01-13T14:51:13.757Z,15.50
2023-01-13T14:53:40.183Z,15.00
2023-01-13T14:59:02.621Z,17.67
2023-01-13T15:01:29.324Z,15.50
2023-01-13T15:03:57.775Z,16.80
2023-01-13T15:06:24.225Z,14.50
2023-01-13T15:08:51.502Z,14.33
2023-01-13T15:14:02.722Z,16.33
2023-01-13T15:16:29.228Z,14.50
2023-01-13T15:18:57.550Z,16.20
2023-01-13T15:21:27.536Z,15.43
2023-01-13T15:23:54.792Z,14.00
2023-01-13T15:29:15.478Z,12.50
2023-01-13T15:31:44.681Z,14.00
2023-01-13T15:34:13.251Z,15.60
2023-01-13T15:36:39.692Z,14.50
2023-01-13T15:39:08.004Z,12.60
2023-01-13T15:44:29.186Z,11.75
2023-01-13T15:46:57.616Z,12.20
2023-01-13T15:49:24.002Z,10.67
2023-01-13T15:51:53.957Z,11.57
2023-01-13T15:54:20.451Z,12.00
2023-01-13T15:59:34.632Z,11.80
2023-01-13T16:02:02.905Z,10.60
2023-01-13T16:04:29.336Z,11.00
2023-01-13T16:06:55.812Z,12.50
2023-01-13T16:09:25.172Z,12.17
2023-01-13T16:14:35.674Z,12.00
2023-01-13T16:17:02.158Z,12.00
2023-01-13T16:19:30.471Z,12.60
2023-01-13T16:21:56.945Z,15.00
2023-01-13T16:24:26.127Z,12.50
2023-01-13T16:29:49.535Z,11.00
2023-01-13T16:32:16.141Z,11.00
2023-01-13T16:34:45.335Z,13.33
2023-01-13T16:37:13.650Z,12.20
2023-01-13T16:39:41.920Z,12.00
2023-01-13T16:44:54.073Z,11.50
2023-01-13T16:47:22.393Z,12.40
2023-01-13T16:49:49.874Z,13.00
2023-01-13T16:52:18.138Z,10.60
2023-01-13T16:54:45.411Z,12.50
2023-01-13T17:00:06.148Z,12.50
2023-01-13T17:02:32.579Z,11.50
2023-01-13T17:04:59.012Z,12.00
2023-01-13T17:07:25.437Z,10.50
2023-01-13T17:09:51.886Z,14.50
2023-01-13T17:15:04.021Z,11.40
2023-01-13T17:17:33.208Z,13.17
2023-01-13T17:19:59.913Z,13.00
2023-01-13T17:22:26.444Z,13.00
2023-01-13T17:24:54.761Z,12.40
2023-01-13T17:30:15.350Z,11.00
2023-01-13T17:32:41.846Z,11.00
2023-01-13T17:35:08.287Z,13.50
2023-01-13T17:37:35.669Z,20.00
2023-01-13T17:40:02.977Z,18.00
2023-01-13T17:45:14.290Z,15.00
2023-01-13T17:47:43.464Z,13.67
2023-01-13T17:50:10.115Z,12.50
2023-01-13T17:52:36.618Z,9.50
2023-01-13T17:55:03.078Z,12.00
2023-01-13T17:57:29.580Z,12.00
2023-01-13T17:59:55.940Z,8.00
2023-01-13T18:02:22.642Z,12.33
2023-01-13T18:04:49.163Z,12.50
2023-01-13T18:07:15.550Z,9.00
2023-01-13T18:09:41.915Z,6.33
2023-01-13T18:12:09.196Z,13.00
2023-01-13T18:14:36.771Z,12.00
2023-01-13T18:17:03.272Z,12.00
2023-01-13T18:19:29.905Z,13.00
2023-01-13T18:21:56.338Z,10.50
2023-01-13T18:24:22.766Z,10.00
2023-01-13T18:26:49.119Z,5.00
2023-01-13T18:29:15.487Z,5.00
2023-01-13T18:31:41.804Z,8.00
2023-01-13T18:34:08.158Z,5.33
2023-01-13T18:36:34.529Z,5.67
2023-01-13T18:39:00.874Z,7.00
2023-01-13T18:41:27.226Z,5.00
2023-01-13T18:43:53.596Z,8.00
2023-01-13T18:46:19.957Z,3.67
2023-01-13T18:48:46.355Z,5.33
2023-01-13T18:51:12.869Z,4.00
2023-01-13T18:53:39.218Z,4.33
2023-01-13T18:56:05.577Z,3.00
2023-01-13T18:58:31.953Z,3.67
2023-01-13T19:00:58.356Z,4.00
2023-01-13T19:03:29.935Z,5.00
2023-01-13T19:05:57.004Z,4.67
2023-01-13T19:08:23.360Z,5.33
2023-01-13T19:10:49.737Z,4.00
2023-01-13T19:13:16.083Z,5.67
2023-01-13T19:18:36.644Z,3.33
2023-01-13T19:21:03.202Z,5.00
2023-01-13T19:23:29.825Z,4.00
2023-01-13T19:25:56.169Z,5.00
2023-01-13T19:28:22.538Z,5.00
2023-01-13T19:33:32.904Z,3.00
2023-01-13T19:35:59.230Z,4.00
2023-01-13T19:38:25.574Z,3.00
2023-01-13T19:40:51.919Z,6.00
2023-01-13T19:43:19.122Z,3.00
2023-01-13T19:48:29.518Z,2.67
2023-01-13T19:50:55.842Z,3.33
2023-01-13T19:53:22.349Z,5.00
2023-01-13T19:55:48.677Z,3.00
2023-01-13T19:58:15.016Z,4.00
2023-01-13T20:03:35.666Z,5.67
2023-01-13T20:06:02.022Z,4.00
2023-01-13T20:08:28.362Z,4.00
2023-01-13T20:10:54.722Z,4.33
2023-01-13T20:13:21.088Z,4.00
2023-01-13T20:18:41.213Z,4.00
2023-01-13T20:21:07.772Z,4.00
2023-01-13T20:23:34.131Z,3.67
2023-01-13T20:26:00.472Z,4.00
2023-01-13T20:28:26.811Z,3.33
2023-01-13T20:33:37.184Z,2.00
2023-01-13T20:36:03.500Z,1.33
2023-01-13T20:38:29.873Z,4.00
2023-01-13T20:40:58.964Z,1.00
2023-01-13T20:43:25.329Z,4.00
2023-01-13T20:48:35.510Z,2.67
2023-01-13T20:51:01.840Z,4.00
2023-01-13T20:53:28.183Z,2.00
2023-01-13T20:55:54.539Z,3.00
2023-01-13T20:58:20.902Z,2.33
2023-01-13T21:03:41.357Z,2.00
2023-01-13T21:06:07.901Z,3.00
2023-01-13T21:08:34.238Z,2.00
2023-01-13T21:11:00.513Z,2.00
2023-01-13T21:13:27.970Z,3.00
2023-01-13T21:18:38.426Z,2.00
2023-01-13T21:21:04.773Z,2.00
2023-01-13T21:23:31.265Z,2.00
2023-01-13T21:26:00.381Z,1.17
2023-01-13T21:28:26.718Z,2.00
2023-01-13T21:33:47.075Z,2.00
2023-01-13T21:36:13.379Z,1.00
2023-01-13T21:38:39.744Z,3.00
2023-01-13T21:41:06.244Z,1.33
2023-01-13T21:43:35.347Z,1.00
2023-01-13T21:48:50.953Z,1.83
2023-01-13T21:51:17.423Z,1.00
2023-01-13T21:53:46.533Z,1.00
2023-01-13T21:56:12.826Z,1.00
2023-01-13T21:58:39.131Z,1.00
2023-01-13T22:01:05.557Z,2.00
2023-01-13T22:03:34.721Z,0.83
2023-01-13T22:06:04.627Z,0.67
2023-01-13T22:08:34.178Z,0.00
2023-01-13T22:11:00.584Z,2.00
2023-01-13T22:13:26.982Z,3.00
2023-01-13T22:15:53.340Z,4.00
2023-01-13T22:18:19.706Z,3.33
2023-01-13T22:20:46.051Z,3.00
2023-01-13T22:23:12.389Z,4.00
2023-01-13T22:25:39.028Z,3.00
2023-01-13T22:28:05.548Z,7.00
2023-01-13T22:30:31.902Z,7.00
2023-01-13T22:32:59.137Z,7.50
2023-01-13T22:35:26.499Z,9.00
2023-01-13T22:37:53.731Z,6.50
2023-01-13T22:40:20.932Z,10.00
2023-01-13T22:42:47.300Z,9.33
2023-01-13T22:45:13.643Z,6.00
2023-01-13T22:47:41.000Z,7.00
2023-01-13T22:50:07.340Z,6.33
2023-01-13T22:52:34.545Z,11.25
2023-01-13T22:55:00.966Z,6.00
2023-01-13T22:57:27.430Z,26.50
2023-01-13T22:59:53.890Z,18.00
2023-01-13T23:02:21.145Z,13.67
2023-01-13T23:04:47.594Z,15.00
2023-01-13T23:07:17.367Z,14.20
2023-01-13T23:09:43.804Z,10.00
2023-01-13T23:12:10.228Z,11.50
2023-01-13T23:14:36.652Z,13.00
2023-01-13T23:17:03.093Z,13.50
2023-01-13T23:22:23.490Z,10.00
2023-01-13T23:24:49.866Z,9.67
2023-01-13T23:27:16.268Z,10.50
2023-01-13T23:29:42.617Z,8.67
2023-01-13T23:32:09.831Z,6.50
2023-01-13T23:37:20.342Z,11.50
2023-01-13T23:39:46.691Z,7.33
2023-01-13T23:42:13.023Z,8.00
2023-01-13T23:44:39.374Z,7.67
2023-01-13T23:47:05.735Z,6.00
2023-01-13T23:52:26.018Z,8.00
2023-01-13T23:54:52.432Z,9.00
2023-01-13T23:57:18.812Z,9.00
2023-01-13T23:59:45.149Z,5.00
